Time;durP1;ratioP1;P1;durP2;ratioP2;P2;SDS_P1;SDS_P2;PMS_P1;PMS_P2;Temp;Humidity;BMP_temperature;BMP_pressure;BME280_temperature;BME280_humidity;BME280_pressure;Samples;Min_cycle;Max_cycle;Signal;HPM_P1;HPM_P2
2022/03/07 00:01:06;;;;;;;14.47;10.80;;;4.80;99.90;;;;;;5074816;28;20638;-74
2022/03/07 00:03:35;;;;;;;13.30;9.70;;;4.70;99.90;;;;;;5074703;28;20731;-74
2022/03/07 00:06:02;;;;;;;12.63;10.00;;;4.70;99.90;;;;;;5073873;28;20228;-73
2022/03/07 00:08:29;;;;;;;16.37;11.67;;;4.70;99.90;;;;;;5074344;28;20259;-73
2022/03/07 00:10:56;;;;;;;14.97;10.80;;;4.70;99.90;;;;;;5074147;28;20222;-74
2022/03/07 00:13:23;;;;;;;17.60;12.03;;;4.60;99.90;;;;;;5074434;28;20198;-74
2022/03/07 00:15:50;;;;;;;13.00;10.50;;;4.60;99.90;;;;;;5073959;28;20214;-74
2022/03/07 00:18:17;;;;;;;12.93;10.00;;;4.60;99.90;;;;;;5074210;28;20202;-73
2022/03/07 00:20:45;;;;;;;14.80;10.70;;;4.60;99.90;;;;;;5073459;28;20616;-74
2022/03/07 00:23:12;;;;;;;13.23;9.90;;;4.60;99.90;;;;;;5074247;28;20210;-73
2022/03/07 00:25:39;;;;;;;16.63;10.60;;;4.60;99.90;;;;;;5074001;28;20741;-77
2022/03/07 00:28:07;;;;;;;12.80;9.63;;;4.60;99.90;;;;;;5074177;28;20720;-78
2022/03/07 00:30:34;;;;;;;14.27;10.87;;;4.50;99.90;;;;;;5074277;28;20202;-77
2022/03/07 00:33:01;;;;;;;12.90;8.47;;;4.40;99.90;;;;;;5073490;28;20253;-76
2022/03/07 00:35:28;;;;;;;17.20;10.93;;;4.40;99.90;;;;;;5073686;28;20260;-76
2022/03/07 00:37:57;;;;;;;15.03;10.60;;;4.40;99.90;;;;;;5073468;28;20547;-75
2022/03/07 00:40:24;;;;;;;12.83;10.40;;;4.40;99.90;;;;;;5073781;28;20252;-76
2022/03/07 00:42:51;;;;;;;13.90;10.07;;;4.40;99.90;;;;;;5073429;28;20259;-77
2022/03/07 00:45:18;;;;;;;13.43;10.53;;;4.50;99.90;;;;;;5073743;28;20206;-77
2022/03/07 00:47:46;;;;;;;17.47;10.80;;;4.40;99.90;;;;;;5073024;28;20202;-75
2022/03/07 00:50:13;;;;;;;17.27;10.63;;;4.40;99.90;;;;;;5073611;28;20673;-78
2022/03/07 00:52:40;;;;;;;13.17;11.13;;;4.40;99.90;;;;;;5073288;28;20797;-75
2022/03/07 00:55:09;;;;;;;14.27;9.73;;;4.40;99.90;;;;;;5074043;28;20202;-78
2022/03/07 00:57:37;;;;;;;14.73;10.53;;;4.30;99.90;;;;;;5073920;28;20276;-78
2022/03/07 01:00:06;;;;;;;15.70;10.67;;;4.20;99.90;;;;;;5073423;28;20248;-75
2022/03/07 01:02:33;;;;;;;12.97;10.37;;;4.20;99.90;;;;;;5073159;28;20308;-76
2022/03/07 01:05:00;;;;;;;12.33;10.70;;;4.20;99.90;;;;;;5073298;28;20263;-75
2022/03/07 01:07:28;;;;;;;13.23;11.47;;;4.20;99.90;;;;;;5073247;28;20237;-79
2022/03/07 01:09:55;;;;;;;13.40;10.13;;;4.30;99.90;;;;;;5073008;28;20678;-77
2022/03/07 01:12:23;;;;;;;12.87;10.23;;;4.30;99.90;;;;;;5073313;28;20279;-78
2022/03/07 01:14:50;;;;;;;11.53;8.87;;;4.20;99.90;;;;;;5072751;28;20206;-76
2022/03/07 01:17:17;;;;;;;14.50;9.83;;;4.20;99.90;;;;;;5072742;28;20206;-77
2022/03/07 01:19:44;;;;;;;13.20;9.87;;;4.20;99.90;;;;;;5072795;28;20264;-77
2022/03/07 01:22:11;;;;;;;11.43;9.03;;;4.20;99.90;;;;;;5073235;28;20206;-77
2022/03/07 01:24:38;;;;;;;14.90;10.83;;;4.10;99.90;;;;;;5073127;28;20259;-76
2022/03/07 01:27:06;;;;;;;10.57;9.30;;;4.10;99.90;;;;;;5073205;28;20735;-78
2022/03/07 01:29:34;;;;;;;9.83;8.83;;;4.10;99.90;;;;;;5072735;28;20688;-77
2022/03/07 01:32:01;;;;;;;12.40;9.90;;;4.10;99.90;;;;;;5072380;28;20238;-75
2022/03/07 01:34:28;;;;;;;16.57;10.87;;;4.10;99.90;;;;;;5072849;28;20206;-75
2022/03/07 01:36:55;;;;;;;12.93;9.07;;;4.00;99.90;;;;;;5072463;28;20205;-75
2022/03/07 01:39:22;;;;;;;11.37;9.30;;;4.00;99.90;;;;;;5072667;28;20210;-75
2022/03/07 01:41:49;;;;;;;14.47;10.40;;;4.20;99.90;;;;;;5072316;28;20260;-76
2022/03/07 01:44:20;;;;;;;11.57;8.60;;;4.10;99.90;;;;;;5072555;28;20256;-75
2022/03/07 01:46:49;;;;;;;10.70;8.20;;;4.00;99.90;;;;;;5072034;28;20613;-75
2022/03/07 01:49:16;;;;;;;11.33;9.13;;;4.10;99.90;;;;;;5072548;28;20304;-77
2022/03/07 01:51:44;;;;;;;11.20;8.90;;;4.00;99.90;;;;;;5072025;28;20646;-77
2022/03/07 01:54:14;;;;;;;11.27;9.17;;;4.00;99.90;;;;;;5072431;28;20610;-75
2022/03/07 01:56:42;;;;;;;12.90;9.60;;;4.00;99.90;;;;;;5072117;28;20213;-75
2022/03/07 01:59:12;;;;;;;9.73;8.30;;;4.00;99.90;;;;;;5072365;28;20234;-76
2022/03/07 02:01:39;;;;;;;12.10;10.07;;;4.00;99.90;;;;;;5071970;28;20210;-74
2022/03/07 02:04:08;;;;;;;14.37;9.60;;;4.00;99.90;;;;;;5072922;28;20257;-76
2022/03/07 02:06:35;;;;;;;10.13;9.13;;;4.00;99.90;;;;;;5072609;28;20256;-75
2022/03/07 02:09:02;;;;;;;10.20;8.50;;;3.90;99.90;;;;;;5071734;28;20203;-77
2022/03/07 02:11:29;;;;;;;14.33;8.83;;;4.00;99.90;;;;;;5072373;28;20234;-77
2022/03/07 02:13:56;;;;;;;12.93;8.20;;;4.00;99.90;;;;;;5071583;28;20238;-77
2022/03/07 02:16:23;;;;;;;11.53;9.20;;;4.00;99.90;;;;;;5071670;28;20739;-77
2022/03/07 02:18:51;;;;;;;9.80;8.33;;;3.90;99.90;;;;;;5071148;28;20612;-76
2022/03/07 02:21:19;;;;;;;12.93;8.37;;;3.80;99.90;;;;;;5071992;28;20244;-74
2022/03/07 02:23:48;;;;;;;11.10;8.87;;;3.80;99.90;;;;;;5071439;28;20206;-77
2022/03/07 02:26:17;;;;;;;11.60;8.00;;;3.90;99.90;;;;;;5072094;28;20198;-77
2022/03/07 02:28:45;;;;;;;11.37;8.80;;;3.90;99.90;;;;;;5071714;28;20252;-77
2022/03/07 02:31:17;;;;;;;16.70;8.77;;;3.90;99.90;;;;;;5071155;28;20622;-75
2022/03/07 02:33:44;;;;;;;8.77;7.97;;;3.80;99.90;;;;;;5071303;28;20202;-77
2022/03/07 02:36:12;;;;;;;10.27;8.50;;;3.80;99.90;;;;;;5071457;28;20206;-76
2022/03/07 02:38:39;;;;;;;11.37;9.23;;;3.70;99.90;;;;;;5071787;28;20292;-74
2022/03/07 02:41:07;;;;;;;11.37;8.30;;;3.70;99.90;;;;;;5072072;28;20271;-78
2022/03/07 02:43:34;;;;;;;13.07;9.47;;;3.80;99.90;;;;;;5071732;28;20210;-73
2022/03/07 02:46:01;;;;;;;10.70;8.10;;;3.70;99.90;;;;;;5070935;28;20625;-76
2022/03/07 02:48:28;;;;;;;12.13;8.90;;;3.60;99.90;;;;;;5071296;28;20228;-76
2022/03/07 02:50:57;;;;;;;12.97;8.80;;;3.50;99.90;;;;;;5070961;28;20206;-77
2022/03/07 02:53:24;;;;;;;12.10;8.43;;;3.90;99.90;;;;;;5071206;28;20283;-75
2022/03/07 02:55:51;;;;;;;12.50;9.23;;;3.70;99.90;;;;;;5071007;28;20202;-77
2022/03/07 02:58:20;;;;;;;11.90;8.97;;;3.10;99.90;;;;;;5070923;28;20551;-75
2022/03/07 03:00:47;;;;;;;10.67;8.90;;;3.60;99.90;;;;;;5070725;28;20263;-76
2022/03/07 03:03:14;;;;;;;12.40;8.53;;;3.60;99.90;;;;;;5070875;28;20649;-77
2022/03/07 03:05:41;;;;;;;9.80;8.57;;;4.20;99.90;;;;;;5054540;28;20261;-77
2022/03/07 03:08:08;;;;;;;9.77;8.77;;;5.30;99.90;;;;;;5051560;28;20202;-78
2022/03/07 03:10:35;;;;;;;11.20;10.00;;;3.40;1.00;;;;;;5053740;28;20671;-74
2022/03/07 03:13:02;;;;;;;10.27;8.10;;;3.50;1.00;;;;;;5050464;28;20243;-77
2022/03/07 03:15:30;;;;;;;11.67;9.30;;;3.50;1.00;;;;;;5050985;28;20620;-73
2022/03/07 03:17:57;;;;;;;13.67;8.33;;;5.00;1.00;;;;;;5050440;28;20203;-74
2022/03/07 03:20:24;;;;;;;10.13;9.10;;;3.70;1.00;;;;;;5051083;28;20674;-72
2022/03/07 03:22:51;;;;;;;10.37;8.13;;;3.50;99.90;;;;;;5050640;28;20206;-76
2022/03/07 03:25:18;;;;;;;9.60;7.73;;;2.80;99.90;;;;;;5051058;28;20622;-76
2022/03/07 03:27:45;;;;;;;14.30;9.20;;;3.50;99.90;;;;;;5050252;28;20203;-77
2022/03/07 03:30:14;;;;;;;13.87;9.03;;;3.30;99.90;;;;;;5049827;28;20620;-77
2022/03/07 03:32:43;;;;;;;10.93;8.40;;;3.30;99.90;;;;;;5050583;28;20265;-73
2022/03/07 03:35:10;;;;;;;10.30;7.90;;;3.40;1.00;;;;;;5050948;28;20301;-78
2022/03/07 03:37:38;;;;;;;18.50;8.23;;;3.10;1.00;;;;;;5051031;28;20616;-77
2022/03/07 03:40:07;;;;;;;8.20;7.20;;;2.60;1.00;;;;;;5050855;28;20214;-75
2022/03/07 03:42:34;;;;;;;14.20;7.80;;;3.80;1.00;;;;;;5050676;28;20218;-76
2022/03/07 03:45:01;;;;;;;8.87;7.13;;;3.40;1.00;;;;;;5050346;28;20229;-77
2022/03/07 03:47:28;;;;;;;12.63;8.30;;;3.20;1.00;;;;;;5050525;28;20670;-74
2022/03/07 03:49:56;;;;;;;12.17;7.63;;;3.40;1.00;;;;;;5050419;28;20199;-73
2022/03/07 03:52:23;;;;;;;10.07;7.27;;;3.40;1.00;;;;;;5050501;28;20647;-74
2022/03/07 03:54:50;;;;;;;9.03;7.00;;;3.50;1.00;;;;;;5050129;28;20207;-73
2022/03/07 03:57:18;;;;;;;10.03;7.00;;;3.50;1.00;;;;;;5050535;28;20211;-82
2022/03/07 03:59:45;;;;;;;10.20;6.63;;;3.50;1.00;;;;;;5050515;28;20207;-74
2022/03/07 04:02:11;;;;;;;12.73;7.13;;;3.40;1.00;;;;;;5050717;28;20272;-75
2022/03/07 04:04:39;;;;;;;8.23;7.07;;;;;;;;;;5050467;28;20203;-73
2022/03/07 04:07:08;;;;;;;10.40;8.10;;;3.50;1.00;;;;;;5050868;28;20206;-76
2022/03/07 04:09:35;;;;;;;9.27;6.87;;;3.40;1.00;;;;;;5050803;28;20212;-76
2022/03/07 04:12:02;;;;;;;11.33;7.97;;;3.40;1.00;;;;;;5049732;28;20292;-76
2022/03/07 04:14:29;;;;;;;9.00;6.60;;;3.70;1.00;;;;;;5050531;28;20237;-77
2022/03/07 04:16:56;;;;;;;10.73;8.27;;;3.20;1.00;;;;;;5049836;28;20663;-74
2022/03/07 04:19:23;;;;;;;9.77;6.80;;;3.40;1.00;;;;;;5050307;28;20207;-75
2022/03/07 04:21:51;;;;;;;11.33;6.43;;;3.30;1.00;;;;;;5050043;28;20211;-75
2022/03/07 04:24:20;;;;;;;8.13;6.70;;;3.30;1.00;;;;;;5050427;28;20213;-76
2022/03/07 04:26:47;;;;;;;10.00;7.33;;;3.30;1.00;;;;;;5049696;28;20663;-75
2022/03/07 04:29:14;;;;;;;8.97;6.70;;;3.40;1.00;;;;;;5050275;28;20260;-75
2022/03/07 04:31:43;;;;;;;9.77;6.83;;;3.20;1.00;;;;;;5049946;28;20206;-75
2022/03/07 04:34:12;;;;;;;13.70;8.57;;;3.40;1.00;;;;;;5050333;28;20245;-74
2022/03/07 04:36:40;;;;;;;11.43;7.43;;;3.30;1.00;;;;;;5050117;28;20607;-75
2022/03/07 04:39:10;;;;;;;10.87;7.60;;;3.30;1.00;;;;;;5050380;28;20734;-76
2022/03/07 04:41:40;;;;;;;9.20;7.33;;;3.30;1.00;;;;;;5051127;28;20199;-75
2022/03/07 04:44:07;;;;;;;9.07;6.53;;;3.20;1.00;;;;;;5054191;28;20290;-76
2022/03/07 04:46:34;;;;;;;9.03;6.50;;;3.20;1.00;;;;;;5054015;28;20562;-74
2022/03/07 04:49:02;;;;;;;10.13;7.17;;;2.90;1.00;;;;;;5053207;28;20248;-75
2022/03/07 04:51:29;;;;;;;11.00;8.07;;;3.30;1.00;;;;;;5053574;28;20210;-77
2022/03/07 04:53:56;;;;;;;10.47;6.23;;;3.30;1.00;;;;;;5052850;28;20776;-77
2022/03/07 04:56:23;;;;;;;10.53;8.00;;;3.30;1.00;;;;;;5053572;28;20677;-78
2022/03/07 04:58:51;;;;;;;9.80;6.93;;;3.20;1.00;;;;;;5053370;28;20320;-75
2022/03/07 05:01:18;;;;;;;9.30;7.07;;;3.20;1.00;;;;;;5053559;28;20635;-74
2022/03/07 05:03:45;;;;;;;8.87;6.53;;;3.60;1.00;;;;;;5053025;28;20207;-78
2022/03/07 05:06:12;;;;;;;8.57;6.90;;;3.40;1.00;;;;;;5053402;28;20203;-77
2022/03/07 05:08:39;;;;;;;8.43;6.50;;;3.60;1.00;;;;;;5053279;28;20210;-77
2022/03/07 05:11:06;;;;;;;11.90;7.40;;;3.30;1.00;;;;;;5053704;28;20260;-77
2022/03/07 05:13:34;;;;;;;9.13;7.10;;;;;;;;;;5053421;28;20722;-74
2022/03/07 05:16:03;;;;;;;9.13;7.30;;;3.50;1.00;;;;;;5052866;28;20203;-77
2022/03/07 05:18:30;;;;;;;11.37;6.83;;;3.20;1.00;;;;;;5053190;28;20206;-76
2022/03/07 05:20:57;;;;;;;9.90;6.53;;;3.10;1.00;;;;;;5052755;28;20745;-76
2022/03/07 05:23:24;;;;;;;8.43;7.63;;;3.10;1.00;;;;;;5053076;28;20203;-76
2022/03/07 05:25:51;;;;;;;12.67;6.83;;;3.10;1.00;;;;;;5052769;28;20272;-76
2022/03/07 05:28:18;;;;;;;7.17;6.17;;;3.00;1.00;;;;;;5052959;28;20203;-77
2022/03/07 05:30:45;;;;;;;12.30;7.50;;;3.00;1.00;;;;;;5052500;28;20207;-79
2022/03/07 05:33:13;;;;;;;10.47;6.77;;;3.10;1.00;;;;;;5052752;28;20288;-76
2022/03/07 05:35:40;;;;;;;7.77;5.63;;;3.00;1.00;;;;;;5052518;28;20206;-76
2022/03/07 05:38:08;;;;;;;9.83;7.33;;;3.00;1.00;;;;;;5052837;28;20207;-78
2022/03/07 05:40:35;;;;;;;11.50;7.13;;;3.00;1.00;;;;;;5052827;28;20750;-76
2022/03/07 05:43:02;;;;;;;7.77;6.27;;;3.10;1.00;;;;;;5052446;28;20206;-76
2022/03/07 05:45:29;;;;;;;9.10;6.73;;;2.90;1.00;;;;;;5052615;28;20670;-77
2022/03/07 05:47:56;;;;;;;9.53;6.37;;;3.00;1.00;;;;;;5052504;28;20219;-77
2022/03/07 05:50:24;;;;;;;11.37;7.77;;;3.20;1.00;;;;;;5052817;28;20214;-77
2022/03/07 05:52:51;;;;;;;10.10;6.57;;;3.10;1.00;;;;;;5051000;28;20227;-78
2022/03/07 05:55:18;;;;;;;12.80;7.60;;;3.10;1.00;;;;;;5051907;28;20736;-75
2022/03/07 05:57:45;;;;;;;13.17;6.93;;;3.00;1.00;;;;;;5051601;28;20625;-77
2022/03/07 06:00:13;;;;;;;10.63;8.70;;;3.40;1.00;;;;;;5052423;28;20276;-74
2022/03/07 06:02:40;;;;;;;12.67;8.37;;;3.10;1.00;;;;;;5051584;28;20294;-74
2022/03/07 06:05:08;;;;;;;10.13;6.93;;;3.70;1.00;;;;;;5052813;28;20203;-79
2022/03/07 06:07:36;;;;;;;10.17;6.80;;;3.60;1.00;;;;;;5052309;28;20261;-82
2022/03/07 06:10:04;;;;;;;11.63;7.20;;;3.80;99.90;;;;;;5052229;28;20211;-79
2022/03/07 06:12:31;;;;;;;9.97;6.43;;;3.80;99.90;;;;;;5052036;28;20203;-79
2022/03/07 06:15:03;;;;;;;8.47;5.97;;;4.50;99.90;;;;;;5051700;28;20207;-80
2022/03/07 06:17:30;;;;;;;10.43;7.23;;;3.90;99.90;;;;;;5052079;28;20209;-77
2022/03/07 06:19:57;;;;;;;7.97;6.47;;;3.60;99.90;;;;;;5051719;28;20203;-77
2022/03/07 06:22:25;;;;;;;10.03;7.63;;;3.60;99.90;;;;;;5051741;28;20203;-77
2022/03/07 06:24:53;;;;;;;10.90;7.60;;;3.60;99.90;;;;;;5051711;28;20198;-77
2022/03/07 06:27:20;;;;;;;10.73;7.97;;;3.60;99.90;;;;;;5051711;28;20666;-76
2022/03/07 06:29:47;;;;;;;9.97;7.23;;;4.00;99.90;;;;;;5051621;28;20202;-76
2022/03/07 06:32:14;;;;;;;9.73;7.03;;;3.20;99.90;;;;;;5052114;28;20252;-75
2022/03/07 06:34:41;;;;;;;14.10;7.53;;;3.20;99.90;;;;;;5051323;28;20300;-76
2022/03/07 06:37:08;;;;;;;13.00;8.67;;;;;;;;;;5051305;28;20616;-75
2022/03/07 06:39:35;;;;;;;12.73;8.67;;;3.20;1.00;;;;;;5054332;28;21532;-80
2022/03/07 06:42:04;;;;;;;14.13;8.77;;;3.20;1.00;;;;;;5070634;28;20256;-77
2022/03/07 06:44:31;;;;;;;11.57;8.60;;;3.20;1.00;;;;;;5071415;28;20260;-77
2022/03/07 06:46:59;;;;;;;13.70;9.47;;;3.30;1.00;;;;;;5071037;28;20206;-78
2022/03/07 06:49:26;;;;;;;12.53;8.53;;;3.50;1.00;;;;;;5071101;28;20210;-77
2022/03/07 06:51:53;;;;;;;12.00;7.90;;;3.40;1.00;;;;;;5070705;28;20731;-78
2022/03/07 06:54:20;;;;;;;14.07;8.50;;;3.30;99.90;;;;;;5070755;28;20358;-78
2022/03/07 06:56:47;;;;;;;13.77;8.97;;;3.50;99.90;;;;;;5081204;28;20205;-78
2022/03/07 06:59:15;;;;;;;15.37;8.27;;;3.50;99.90;;;;;;5078193;28;20258;-77
2022/03/07 07:01:42;;;;;;;17.77;8.13;;;3.70;1.00;;;;;;5090733;28;20217;-78
2022/03/07 07:04:09;;;;;;;11.73;8.60;;;3.90;99.90;;;;;;5091080;28;20205;-77
2022/03/07 07:06:36;;;;;;;12.70;8.33;;;4.10;99.90;;;;;;5091377;28;20202;-77
2022/03/07 07:09:04;;;;;;;14.87;9.27;;;4.10;99.90;;;;;;5090971;28;20216;-78
2022/03/07 07:11:31;;;;;;;14.50;9.80;;;4.10;99.90;;;;;;5078531;28;20256;-78
2022/03/07 07:13:58;;;;;;;13.10;10.70;;;4.40;99.90;;;;;;5069100;28;20665;-79
2022/03/07 07:16:26;;;;;;;13.20;9.33;;;4.60;99.90;;;;;;5081669;28;20616;-77
2022/03/07 07:18:53;;;;;;;14.20;10.57;;;4.90;99.90;;;;;;5084488;28;20213;-78
2022/03/07 07:21:20;;;;;;;11.90;8.10;;;4.90;99.90;;;;;;5090564;28;20734;-78
2022/03/07 07:23:47;;;;;;;12.43;7.93;;;4.90;99.90;;;;;;5083940;28;20624;-77
2022/03/07 07:26:14;;;;;;;12.80;9.87;;;5.20;99.90;;;;;;5077033;28;20213;-78
2022/03/07 07:28:41;;;;;;;10.27;7.90;;;5.00;99.90;;;;;;5090510;28;20201;-77
2022/03/07 07:31:09;;;;;;;11.00;8.57;;;;;;;;;;5075484;28;20202;-78
2022/03/07 07:33:37;;;;;;;12.83;7.77;;;4.80;99.90;;;;;;5069975;28;20234;-78
2022/03/07 07:36:05;;;;;;;13.67;8.83;;;5.30;99.90;;;;;;5080060;28;20209;-78
2022/03/07 07:38:32;;;;;;;11.03;8.53;;;4.90;99.90;;;;;;5080627;28;20209;-79
2022/03/07 07:40:59;;;;;;;12.47;8.77;;;5.00;99.90;;;;;;5080854;28;20276;-76
2022/03/07 07:43:26;;;;;;;15.33;9.77;;;4.90;99.90;;;;;;5070015;28;20702;-76
2022/03/07 07:45:53;;;;;;;17.07;10.60;;;5.20;99.90;;;;;;5087588;28;20197;-74
2022/03/07 07:48:20;;;;;;;11.97;9.33;;;5.20;99.90;;;;;;5089722;28;20209;-76
2022/03/07 07:50:48;;;;;;;14.13;10.10;;;5.40;99.90;;;;;;5080392;28;20738;-76
2022/03/07 07:53:15;;;;;;;10.63;8.63;;;5.30;99.90;;;;;;5090482;28;20225;-75
2022/03/07 07:55:42;;;;;;;13.53;9.70;;;5.80;99.90;;;;;;5090041;28;20677;-75
2022/03/07 07:58:09;;;;;;;11.10;9.13;;;5.50;99.90;;;;;;5090346;28;20213;-77
2022/03/07 08:00:36;;;;;;;10.80;8.90;;;5.40;99.90;;;;;;5090718;28;20201;-76
2022/03/07 08:03:03;;;;;;;15.50;8.97;;;5.30;99.90;;;;;;5090086;28;20296;-77
2022/03/07 08:05:30;;;;;;;13.93;9.90;;;5.70;99.90;;;;;;5084863;28;20206;-77
2022/03/07 08:07:59;;;;;;;13.73;9.20;;;5.90;99.90;;;;;;5085693;28;20213;-79
2022/03/07 08:10:27;;;;;;;12.13;9.70;;;6.10;99.90;;;;;;5083170;28;20256;-82
2022/03/07 08:12:54;;;;;;;11.70;8.00;;;6.60;99.90;;;;;;5089872;28;20624;-77
2022/03/07 08:15:21;;;;;;;11.20;8.97;;;6.00;99.90;;;;;;5089906;28;20659;-77
2022/03/07 08:17:50;;;;;;;14.50;9.53;;;6.10;99.90;;;;;;5092273;28;20235;-78
2022/03/07 08:20:18;;;;;;;9.17;7.87;;;6.20;99.90;;;;;;5094376;28;20274;-77
2022/03/07 08:22:45;;;;;;;16.57;10.07;;;6.50;99.90;;;;;;5093431;28;20206;-76
2022/03/07 08:25:14;;;;;;;15.83;9.27;;;6.00;99.90;;;;;;5090882;28;20253;-77
2022/03/07 08:27:41;;;;;;;12.40;9.47;;;6.40;99.90;;;;;;5093770;28;20201;-75
2022/03/07 08:30:11;;;;;;;12.13;9.07;;;6.50;99.90;;;;;;5076433;28;20214;-74
2022/03/07 08:32:40;;;;;;;9.93;8.20;;;6.10;99.90;;;;;;5074072;28;20266;-73
2022/03/07 08:35:09;;;;;;;14.83;9.70;;;6.10;99.90;;;;;;5073391;28;20652;-76
2022/03/07 08:37:36;;;;;;;12.40;8.83;;;6.60;99.90;;;;;;5074057;28;20689;-77
2022/03/07 08:40:03;;;;;;;13.67;9.57;;;6.80;99.90;;;;;;5073774;28;20331;-76
2022/03/07 08:42:32;;;;;;;11.70;8.83;;;6.60;99.90;;;;;;5073658;28;20740;-77
2022/03/07 08:44:59;;;;;;;10.33;7.80;;;7.20;99.90;;;;;;5073519;28;20213;-75
2022/03/07 08:47:26;;;;;;;15.70;8.63;;;6.80;99.90;;;;;;5073701;28;20210;-78
2022/03/07 08:49:53;;;;;;;13.43;10.33;;;6.70;99.90;;;;;;5073277;28;20259;-77
2022/03/07 08:52:20;;;;;;;15.03;10.53;;;6.80;99.90;;;;;;5073694;28;20214;-78
2022/03/07 08:54:47;;;;;;;11.47;8.97;;;7.00;99.90;;;;;;5064308;28;20227;-76
2022/03/07 08:57:15;;;;;;;11.90;8.80;;;6.90;99.90;;;;;;5082168;28;20263;-76
2022/03/07 08:59:44;;;;;;;12.93;8.70;;;6.70;99.90;;;;;;5092915;28;20202;-76
2022/03/07 09:02:12;;;;;;;11.43;9.17;;;6.70;99.90;;;;;;5093119;28;20743;-77
2022/03/07 09:04:40;;;;;;;13.07;8.67;;;6.60;99.90;;;;;;5082459;28;20237;-76
2022/03/07 09:07:08;;;;;;;12.03;8.40;;;7.80;99.90;;;;;;5083318;28;20210;-77
2022/03/07 09:09:35;;;;;;;14.97;9.47;;;7.40;99.90;;;;;;5091615;28;20209;-79
2022/03/07 09:12:03;;;;;;;15.03;9.23;;;7.60;99.90;;;;;;5081351;28;20677;-78
2022/03/07 09:14:31;;;;;;;14.60;9.13;;;7.20;99.90;;;;;;5073284;28;20288;-76
2022/03/07 09:16:59;;;;;;;13.43;8.63;;;8.00;99.90;;;;;;5072264;28;20682;-76
2022/03/07 09:19:26;;;;;;;17.43;9.47;;;8.00;99.90;;;;;;5072565;28;20619;-76
2022/03/07 09:21:54;;;;;;;14.83;9.90;;;7.80;99.90;;;;;;5072633;28;20202;-76
2022/03/07 09:24:22;;;;;;;15.30;9.77;;;7.90;99.90;;;;;;5073065;28;20202;-76
2022/03/07 09:26:49;;;;;;;16.13;11.53;;;8.10;99.90;;;;;;5072699;28;20222;-76
2022/03/07 09:29:16;;;;;;;15.03;11.20;;;8.40;99.90;;;;;;5071939;28;20202;-76
2022/03/07 09:31:43;;;;;;;18.70;10.60;;;9.50;99.90;;;;;;5072459;28;20229;-76
2022/03/07 09:34:12;;;;;;;13.40;10.43;;;9.40;99.90;;;;;;5072780;28;20230;-76
2022/03/07 09:36:40;;;;;;;11.57;10.37;;;;;;;;;;5072884;28;20204;-75
2022/03/07 09:39:07;;;;;;;17.83;11.77;;;9.40;99.90;;;;;;5073051;28;20260;-73
2022/03/07 09:41:34;;;;;;;17.37;10.60;;;9.20;99.90;;;;;;5072478;28;20198;-83
2022/03/07 09:44:02;;;;;;;22.53;14.37;;;9.80;99.90;;;;;;5072564;28;20226;-79
2022/03/07 09:46:29;;;;;;;19.20;12.50;;;9.70;99.90;;;;;;5072363;28;20267;-79
2022/03/07 09:48:56;;;;;;;14.97;11.50;;;9.70;99.90;;;;;;5072272;28;20206;-77
2022/03/07 09:51:25;;;;;;;14.40;11.33;;;10.80;99.90;;;;;;5072527;28;20202;-77
2022/03/07 09:53:52;;;;;;;12.50;10.03;;;10.00;99.90;;;;;;5072242;28;20243;-78
2022/03/07 09:56:19;;;;;;;15.77;9.93;;;9.90;99.90;;;;;;5072614;28;20690;-77
2022/03/07 09:58:46;;;;;;;16.27;13.03;;;10.70;99.90;;;;;;5071687;28;20247;-77
2022/03/07 10:01:16;;;;;;;18.30;12.63;;;10.10;99.90;;;;;;5072224;28;20735;-78
2022/03/07 10:03:43;;;;;;;20.20;11.57;;;10.70;99.90;;;;;;5071836;28;20674;-76
2022/03/07 10:06:14;;;;;;;15.30;11.00;;;10.30;99.90;;;;;;5072183;28;20206;-76
2022/03/07 10:08:52;;;;;;;18.07;12.00;;;10.30;99.90;;;;;;5071722;28;20615;-76
2022/03/07 10:11:19;;;;;;;18.43;12.13;;;10.60;99.90;;;;;;5072126;28;20255;-76
2022/03/07 10:13:53;;;;;;;17.03;11.27;;;10.60;99.90;;;;;;5071457;28;20267;-76
2022/03/07 10:16:21;;;;;;;13.37;10.33;;;10.70;99.90;;;;;;5071987;28;20670;-76
2022/03/07 10:18:53;;;;;;;14.17;10.90;;;10.70;99.90;;;;;;5071593;28;20733;-76
2022/03/07 10:21:25;;;;;;;16.43;11.87;;;10.50;99.90;;;;;;5071902;28;20255;-76
2022/03/07 10:23:54;;;;;;;15.40;10.87;;;10.80;99.90;;;;;;5071604;28;20256;-76
2022/03/07 10:26:22;;;;;;;14.60;10.67;;;9.90;99.90;;;;;;5071832;28;20206;-76
2022/03/07 10:28:53;;;;;;;15.53;10.17;;;9.90;99.90;;;;;;5071256;28;20279;-76
2022/03/07 10:31:20;;;;;;;13.03;9.93;;;10.50;99.90;;;;;;5071765;28;20603;-76
2022/03/07 10:33:48;;;;;;;17.97;11.57;;;10.10;99.90;;;;;;5071054;28;20211;-76
2022/03/07 10:36:16;;;;;;;14.97;11.47;;;9.80;99.90;;;;;;5071655;28;20621;-76
2022/03/07 10:38:44;;;;;;;15.73;10.47;;;10.10;99.90;;;;;;5071298;28;20285;-76
2022/03/07 10:41:13;;;;;;;14.20;10.80;;;10.10;99.90;;;;;;5071252;28;20240;-77
2022/03/07 10:43:49;;;;;;;17.57;10.73;;;10.50;99.90;;;;;;5071123;28;20203;-76
2022/03/07 10:46:26;;;;;;;15.23;9.77;;;11.20;99.90;;;;;;5071300;28;20255;-76
2022/03/07 10:48:54;;;;;;;11.70;8.50;;;11.00;99.90;;;;;;5070882;28;20201;-76
2022/03/07 10:51:21;;;;;;;13.93;9.90;;;10.50;99.90;;;;;;5071293;28;20205;-76
2022/03/07 10:53:49;;;;;;;14.40;9.43;;;11.10;99.90;;;;;;5070810;28;20206;-76
2022/03/07 10:56:18;;;;;;;13.90;8.50;;;11.00;99.90;;;;;;5071216;28;20689;-75
2022/03/07 10:58:50;;;;;;;12.93;8.70;;;10.40;99.90;;;;;;5070504;28;20210;-76
2022/03/07 11:01:28;;;;;;;11.37;8.67;;;10.70;99.90;;;;;;5071039;28;20221;-76
2022/03/07 11:03:55;;;;;;;9.90;8.13;;;10.40;99.90;;;;;;5070852;28;20297;-75
2022/03/07 11:06:22;;;;;;;14.30;9.10;;;10.20;99.90;;;;;;5070996;28;20236;-76
2022/03/07 11:08:49;;;;;;;11.53;9.30;;;11.40;99.90;;;;;;5070622;28;20202;-76
2022/03/07 11:11:18;;;;;;;12.63;8.80;;;11.30;99.90;;;;;;5070648;28;20677;-75
2022/03/07 11:13:46;;;;;;;10.60;7.57;;;11.40;99.90;;;;;;5071024;28;20260;-76
2022/03/07 11:16:14;;;;;;;10.07;7.40;;;11.30;99.90;;;;;;5071090;28;20238;-76
2022/03/07 11:18:46;;;;;;;13.60;8.00;;;11.40;99.90;;;;;;5070679;28;20212;-76
2022/03/07 11:21:13;;;;;;;10.30;8.07;;;11.80;99.90;;;;;;5070978;28;20259;-76
2022/03/07 11:23:40;;;;;;;12.90;7.70;;;11.40;99.90;;;;;;5070711;28;20275;-77
2022/03/07 11:26:09;;;;;;;8.33;7.23;;;11.60;99.90;;;;;;5071206;28;20248;-77
2022/03/07 11:28:38;;;;;;;10.23;7.83;;;11.20;99.90;;;;;;5071199;28;20276;-76
2022/03/07 11:31:05;;;;;;;12.00;8.97;;;11.50;99.90;;;;;;5071012;28;20217;-76
2022/03/07 11:33:37;;;;;;;10.90;8.63;;;11.40;99.90;;;;;;5070584;28;20263;-76
2022/03/07 11:36:06;;;;;;;14.23;8.47;;;10.40;99.90;;;;;;5070409;28;20241;-75
2022/03/07 11:38:35;;;;;;;12.30;8.57;;;10.20;99.90;;;;;;5070851;28;20724;-76
2022/03/07 11:41:07;;;;;;;10.47;7.77;;;10.20;99.90;;;;;;5070100;28;20688;-76
2022/03/07 11:43:36;;;;;;;9.10;7.10;;;10.00;99.90;;;;;;5069423;28;20255;-78
2022/03/07 11:46:05;;;;;;;10.97;8.10;;;10.60;99.90;;;;;;5070504;28;20209;-77
2022/03/07 11:48:45;;;;;;;12.33;8.20;;;11.10;99.90;;;;;;5070720;28;20576;-76
2022/03/07 11:51:20;;;;;;;15.00;8.40;;;11.00;99.90;;;;;;5070675;28;20209;-76
2022/03/07 11:53:48;;;;;;;11.53;8.60;;;11.20;99.90;;;;;;5074482;28;20212;-76
2022/03/07 11:56:19;;;;;;;11.03;8.50;;;11.50;99.90;;;;;;5074386;28;20237;-77
2022/03/07 11:58:49;;;;;;;9.57;6.43;;;11.50;99.90;;;;;;5074028;28;20817;-77
2022/03/07 12:01:18;;;;;;;9.20;7.70;;;11.30;99.90;;;;;;5074445;28;20693;-77
2022/03/07 12:03:47;;;;;;;12.93;8.23;;;10.80;99.90;;;;;;5074322;28;20202;-77
2022/03/07 12:06:16;;;;;;;9.37;6.93;;;11.00;99.90;;;;;;5074865;28;20271;-77
2022/03/07 12:08:44;;;;;;;10.67;7.67;;;10.90;99.90;;;;;;5074146;28;20206;-77
2022/03/07 12:11:24;;;;;;;12.27;9.13;;;12.00;99.90;;;;;;5073932;28;20198;-77
2022/03/07 12:13:52;;;;;;;9.83;7.77;;;11.90;99.90;;;;;;5074083;28;20208;-77
2022/03/07 12:16:29;;;;;;;11.03;7.70;;;12.10;99.90;;;;;;5074311;28;20302;-78
2022/03/07 12:19:06;;;;;;;9.40;6.93;;;11.40;99.90;;;;;;5073904;28;20553;-77
2022/03/07 12:21:33;;;;;;;10.70;7.73;;;11.60;99.90;;;;;;5071799;28;20210;-77
2022/03/07 12:24:00;;;;;;;12.00;7.23;;;11.70;99.90;;;;;;5073985;28;20247;-77
2022/03/07 12:26:27;;;;;;;8.87;6.57;;;11.50;99.90;;;;;;5074087;28;20198;-77
2022/03/07 12:28:54;;;;;;;10.90;7.67;;;12.00;99.90;;;;;;5073875;28;20206;-77
2022/03/07 12:31:21;;;;;;;10.80;7.30;;;12.20;99.90;;;;;;5074058;28;20202;-77
2022/03/07 12:33:50;;;;;;;8.43;6.77;;;11.00;99.90;;;;;;5073583;28;20267;-78
2022/03/07 12:36:18;;;;;;;9.63;7.10;;;11.20;99.90;;;;;;5073898;28;20242;-78
2022/03/07 12:38:49;;;;;;;10.30;7.83;;;11.50;99.90;;;;;;5073300;28;20267;-78
2022/03/07 12:41:18;;;;;;;10.77;8.53;;;12.30;99.90;;;;;;5074025;28;20206;-77
2022/03/07 12:43:46;;;;;;;10.33;7.33;;;12.60;99.90;;;;;;5073586;28;20255;-78
2022/03/07 12:46:13;;;;;;;10.47;7.37;;;12.30;99.90;;;;;;5073578;28;20681;-78
2022/03/07 12:48:43;;;;;;;7.87;7.07;;;12.40;99.90;;;;;;5073370;28;20267;-77
2022/03/07 12:51:14;;;;;;;8.23;7.23;;;13.20;99.90;;;;;;5073982;28;20285;-78